createdAt,value
2016-04-13T00:00:53.503Z,65.39
2016-04-13T00:01:53.538Z,63.86
2016-04-13T00:02:53.555Z,63.96
2016-04-13T00:03:53.558Z,64.53
2016-04-13T00:04:53.577Z,64.72
2016-04-13T00:05:53.610Z,64.62
2016-04-13T00:06:53.613Z,63.96
2016-04-13T00:07:53.631Z,63.96
2016-04-13T00:08:53.639Z,64.05
2016-04-13T00:09:53.657Z,64.25
2016-04-13T00:10:53.691Z,65.1
2016-04-13T00:11:53.694Z,65.01
2016-04-13T00:12:53.712Z,65.1
2016-04-13T00:13:53.730Z,65.3
2016-04-13T00:14:53.733Z,64.72
2016-04-13T00:15:53.751Z,64.53
2016-04-13T00:16:53.769Z,64.62
2016-04-13T00:17:53.803Z,65.39
2016-04-13T00:18:53.806Z,65.96
2016-04-13T00:19:53.840Z,66.25
2016-04-13T00:20:53.875Z,66.06
2016-04-13T00:21:53.862Z,65.67
2016-04-13T00:22:53.863Z,65.87
2016-04-13T00:23:53.914Z,64.91
2016-04-13T00:24:53.900Z,66.06
2016-04-13T00:25:53.919Z,65.58
2016-04-13T00:26:53.938Z,66.06
2016-04-13T00:27:53.971Z,65.87
2016-04-13T00:28:53.974Z,65.58
2016-04-13T00:29:53.993Z,65.96
2016-04-13T00:30:53.995Z,66.15
2016-04-13T00:31:54.029Z,66.53
2016-04-13T00:32:54.032Z,66.25
2016-04-13T00:33:54.065Z,65.96
2016-04-13T00:34:54.068Z,65.87
2016-04-13T00:35:54.134Z,65.58
2016-04-13T00:36:54.104Z,65.96
2016-04-13T00:37:54.107Z,65.87
2016-04-13T00:38:54.125Z,66.25
2016-04-13T00:39:54.159Z,66.25
2016-04-13T00:40:54.179Z,66.06
2016-04-13T00:41:54.196Z,66.15
2016-04-13T00:42:54.199Z,66.41
2016-04-13T00:43:54.217Z,66.02
2016-04-13T00:44:54.236Z,66.35
2016-04-13T00:45:54.254Z,66.02
2016-04-13T00:46:54.289Z,66.6
2016-04-13T00:47:54.291Z,66.5
2016-04-13T00:48:54.309Z,66.6
2016-04-13T00:49:54.343Z,66.88
2016-04-13T00:50:54.377Z,66.6
2016-04-13T00:51:54.347Z,66.6
2016-04-13T00:52:54.366Z,66.88
2016-04-13T00:53:54.385Z,66.78
2016-04-13T00:54:54.388Z,66.88
2016-04-13T00:55:54.405Z,67.46
2016-04-13T00:56:54.440Z,67.17
2016-04-13T00:57:54.443Z,67.65
2016-04-13T00:58:54.460Z,67.83
2016-04-13T00:59:54.479Z,67.74
2016-04-13T01:00:54.482Z,67.74
2016-04-13T01:01:54.499Z,68.22
2016-04-13T01:02:54.518Z,68.12
2016-04-13T01:03:54.552Z,68.12
2016-04-13T01:05:08.664Z,68.98
2016-04-13T01:05:54.589Z,68.7
2016-04-13T01:06:54.592Z,68.6
2016-04-13T01:07:54.610Z,68.79
2016-04-13T01:08:54.629Z,68.22
2016-04-13T01:09:54.632Z,68.18
2016-04-13T01:10:54.649Z,68.79
2016-04-13T01:11:54.698Z,69.08
2016-04-13T01:12:54.691Z,67.71
2016-04-13T01:13:54.708Z,68.03
2016-04-13T01:14:54.710Z,68.28
2016-04-13T01:15:54.729Z,68.28
2016-04-13T01:16:54.747Z,67.33
2016-04-13T01:17:54.765Z,67.8
2016-04-13T01:18:54.784Z,67.61
2016-04-13T01:19:54.802Z,67.9
2016-04-13T01:20:54.821Z,67.99
2016-04-13T01:21:54.824Z,67.33
2016-04-13T01:22:54.845Z,67.74
2016-04-13T01:23:54.864Z,67.99
2016-04-13T01:24:54.867Z,67.14
2016-04-13T01:25:54.900Z,67.71
2016-04-13T01:26:54.919Z,67.14
2016-04-13T01:27:54.922Z,67.23
2016-04-13T01:28:54.940Z,67.23
2016-04-13T01:29:54.958Z,67.61
2016-04-13T01:30:54.977Z,67.42
2016-04-13T01:31:54.994Z,67.71
2016-04-13T01:32:55.029Z,68.28
2016-04-13T01:33:55.032Z,67.8
2016-04-13T01:34:55.034Z,67.61
2016-04-13T01:35:55.052Z,67.23
2016-04-13T01:36:55.070Z,67.23
2016-04-13T01:37:55.089Z,67.14
2016-04-13T01:38:55.107Z,66.66
2016-04-13T01:39:55.110Z,67.42
2016-04-13T01:40:55.129Z,67.04
2016-04-13T01:41:55.162Z,67.42
2016-04-13T01:42:55.149Z,67.71
2016-04-13T01:43:55.184Z,66.85
2016-04-13T01:44:55.187Z,66.85
2016-04-13T01:45:55.236Z,66.75
2016-04-13T01:46:55.067Z,66.85
2016-04-13T01:47:55.242Z,67.04
2016-04-13T01:48:55.259Z,67.04
2016-04-13T01:49:55.278Z,67.52
2016-04-13T01:50:55.280Z,67.04
2016-04-13T01:51:55.298Z,67.23
2016-04-13T01:52:55.317Z,66.56
2016-04-13T01:53:55.335Z,67.52
2016-04-13T01:54:55.364Z,67.33
2016-04-13T01:55:55.409Z,67.14
2016-04-13T01:56:55.580Z,67.61
2016-04-13T01:57:55.549Z,67.8
2016-04-13T01:58:55.593Z,67.8
2016-04-13T01:59:55.649Z,67.71
2016-04-13T02:00:55.666Z,67.71
2016-04-13T02:01:55.700Z,67.8
2016-04-13T02:02:55.734Z,67.99
2016-04-13T02:03:55.767Z,67.61
2016-04-13T02:04:55.845Z,67.71
2016-04-13T02:05:55.823Z,67.14
2016-04-13T02:06:55.846Z,67.77
2016-04-13T02:07:55.870Z,67.61
2016-04-13T02:08:55.878Z,68.05
2016-04-13T02:09:55.900Z,68.15
2016-04-13T02:10:55.936Z,67.48
2016-04-13T02:11:55.941Z,67.9
2016-04-13T02:12:55.961Z,67.48
2016-04-13T02:13:55.967Z,67.29
2016-04-13T02:14:56.001Z,68.15
2016-04-13T02:15:56.005Z,67.58
2016-04-13T02:16:56.025Z,67.29
2016-04-13T02:17:56.028Z,67.96
2016-04-13T02:18:56.046Z,67.77
2016-04-13T02:19:56.065Z,67.77
2016-04-13T02:20:56.084Z,67.86
2016-04-13T02:21:56.103Z,67.77
2016-04-13T02:22:56.106Z,67.77
2016-04-13T02:23:56.125Z,68.15
2016-04-13T02:24:56.159Z,67.96
2016-04-13T02:25:56.162Z,67.77
2016-04-13T02:26:56.226Z,68.53
2016-04-13T02:27:56.183Z,68.63
2016-04-13T02:28:56.201Z,67.77
2016-04-13T02:29:56.235Z,68.24
2016-04-13T02:30:56.254Z,67.77
2016-04-13T02:31:56.256Z,68.05
2016-04-13T02:32:56.275Z,68.34
2016-04-13T02:33:56.278Z,68.44
2016-04-13T02:34:56.311Z,68.72
2016-04-13T02:35:56.314Z,68.91
2016-04-13T02:36:56.333Z,68.44
2016-04-13T02:37:56.366Z,67.29
2016-04-13T02:38:56.384Z,67.48
2016-04-13T02:39:56.372Z,67.68
2016-04-13T02:40:56.389Z,67.2
2016-04-13T02:41:56.408Z,68.24
2016-04-13T02:42:56.427Z,68.15
2016-04-13T02:43:56.429Z,68.24
2016-04-13T02:44:56.462Z,68.05
2016-04-13T02:45:56.465Z,68.15
2016-04-13T02:46:56.516Z,67.86
2016-04-13T02:47:56.502Z,68.24
2016-04-13T02:48:56.505Z,67.77
2016-04-13T02:49:56.523Z,67.96
2016-04-13T02:50:56.557Z,67.86
2016-04-13T02:51:56.560Z,68.24
2016-04-13T02:52:56.578Z,67.77
2016-04-13T02:53:56.596Z,67.77
2016-04-13T02:54:56.598Z,67.86
2016-04-13T02:55:56.617Z,67.77
2016-04-13T02:56:56.620Z,67.39
2016-04-13T02:57:56.638Z,67.58
2016-04-13T02:58:56.656Z,68.05
2016-04-13T02:59:56.675Z,68.15
2016-04-13T03:00:56.709Z,67.86
2016-04-13T03:01:56.728Z,67.68
2016-04-13T03:02:56.730Z,67.96
2016-04-13T03:03:56.733Z,67.96
2016-04-13T03:04:56.767Z,67.68
2016-04-13T03:05:56.770Z,67.26
2016-04-13T03:06:56.803Z,67.39
2016-04-13T03:07:56.806Z,67.48
2016-04-13T03:08:56.824Z,67.39
2016-04-13T03:09:56.842Z,67
2016-04-13T03:10:56.845Z,67.96
2016-04-13T03:11:56.863Z,67.58
2016-04-13T03:12:56.866Z,67.45
2016-04-13T03:13:56.899Z,67.77
2016-04-13T03:14:56.919Z,67.26
2016-04-13T03:15:56.938Z,67.48
2016-04-13T03:16:56.940Z,67.86
2016-04-13T03:17:56.958Z,67.77
2016-04-13T03:18:56.976Z,67.1
2016-04-13T03:19:56.979Z,67.77
2016-04-13T03:20:57.013Z,67.48
2016-04-13T03:21:57.016Z,67.29
2016-04-13T03:22:57.034Z,67.2
2016-04-13T03:23:57.051Z,67.68
2016-04-13T03:24:57.070Z,67.68
2016-04-13T03:25:57.073Z,67.39
2016-04-13T03:26:57.091Z,66.34
2016-04-13T03:27:57.094Z,66.53
2016-04-13T03:28:57.112Z,66.82
2016-04-13T03:29:57.146Z,67.1
2016-04-13T03:30:57.149Z,66.82
2016-04-13T03:31:57.167Z,66.91
2016-04-13T03:32:57.170Z,66.91
2016-04-13T03:33:57.189Z,66.72
2016-04-13T03:34:57.206Z,66.91
2016-04-13T03:35:57.225Z,66.91
2016-04-13T03:36:57.228Z,67.2
2016-04-13T03:37:57.277Z,67.45
2016-04-13T03:38:57.264Z,67.68
2016-04-13T03:39:57.283Z,67.39
2016-04-13T03:40:57.305Z,67.64
2016-04-13T03:41:57.324Z,66.82
2016-04-13T03:42:57.326Z,66.69
2016-04-13T03:43:57.346Z,66.21
2016-04-13T03:44:57.473Z,66.69
2016-04-13T03:45:57.382Z,66.97
2016-04-13T03:46:57.384Z,67.16
2016-04-13T03:47:57.402Z,67.35
2016-04-13T03:48:57.421Z,67.45
2016-04-13T03:49:57.439Z,66.69
2016-04-13T03:50:57.457Z,66.78
2016-04-13T03:51:57.476Z,67.74
2016-04-13T03:52:57.494Z,67.16
2016-04-13T03:53:57.497Z,66.31
2016-04-13T03:54:57.515Z,67.07
2016-04-13T03:55:57.518Z,67.26
2016-04-13T03:56:57.536Z,67.74
2016-04-13T03:57:57.554Z,67.55
2016-04-13T03:58:57.589Z,67.26
2016-04-13T03:59:57.592Z,67.26
2016-04-13T04:00:57.609Z,67.35
2016-04-13T04:01:57.628Z,67.07
2016-04-13T04:02:57.630Z,66.88
2016-04-13T04:03:57.649Z,67.45
2016-04-13T04:04:57.667Z,66.5
2016-04-13T04:05:57.685Z,66.88
2016-04-13T04:06:57.703Z,66.59
2016-04-13T04:07:57.706Z,66.21
2016-04-13T04:08:57.725Z,66.97
2016-04-13T04:09:57.727Z,67.35
2016-04-13T04:10:57.746Z,67.45
2016-04-13T04:11:57.780Z,66.97
2016-04-13T04:12:57.783Z,67.07
2016-04-13T04:13:57.786Z,66.59
2016-04-13T04:14:57.804Z,66.5
2016-04-13T04:15:57.822Z,66.5
2016-04-13T04:16:57.840Z,65.64
2016-04-13T04:17:57.874Z,66.11
2016-04-13T04:18:57.877Z,66.4
2016-04-13T04:19:57.879Z,66.88
2016-04-13T04:20:57.913Z,66.5
2016-04-13T04:21:57.915Z,66.69
2016-04-13T04:22:57.934Z,67.74
2016-04-13T04:23:57.953Z,66.88
2016-04-13T04:24:57.956Z,67.16
2016-04-13T04:25:57.973Z,66.69
2016-04-13T04:26:57.992Z,66.5
2016-04-13T04:27:58.010Z,65.64
2016-04-13T04:28:58.060Z,66.21
2016-04-13T04:29:58.031Z,66.4
2016-04-13T04:30:58.050Z,66.59
2016-04-13T04:31:58.068Z,66.97
2016-04-13T04:32:58.103Z,66.97
2016-04-13T04:33:58.105Z,66.34
2016-04-13T04:34:58.123Z,66.02
2016-04-13T04:35:58.125Z,66.15
2016-04-13T04:36:58.144Z,66.72
2016-04-13T04:37:58.162Z,66.72
2016-04-13T04:38:58.164Z,66.15
2016-04-13T04:39:58.199Z,66.34
2016-04-13T04:40:58.202Z,66.15
2016-04-13T04:41:58.220Z,66.63
2016-04-13T04:42:58.255Z,66.82
2016-04-13T04:43:58.272Z,66.34
2016-04-13T04:44:58.260Z,66.34
2016-04-13T04:45:58.277Z,66.44
2016-04-13T04:46:58.296Z,66.44
2016-04-13T04:47:58.313Z,66.05
2016-04-13T04:48:58.316Z,66.05
2016-04-13T04:49:58.335Z,65.58
2016-04-13T04:50:58.354Z,65.67
2016-04-13T04:51:58.371Z,65.48
2016-04-13T04:52:58.390Z,64.72
2016-04-13T04:53:58.408Z,64.43
2016-04-13T04:54:58.411Z,65.1
2016-04-13T04:55:58.429Z,64.81
2016-04-13T04:56:58.448Z,64.62
2016-04-13T04:57:58.466Z,65.58
2016-04-13T04:58:58.469Z,65.1
2016-04-13T04:59:58.487Z,64.62
2016-04-13T05:00:58.537Z,65.1
2016-04-13T05:01:58.523Z,65.48
2016-04-13T05:02:58.526Z,64.91
2016-04-13T05:03:58.545Z,65.1
2016-04-13T05:04:58.563Z,65.86
2016-04-13T05:05:58.581Z,65.29
2016-04-13T05:06:58.584Z,65.2
2016-04-13T05:07:58.602Z,64.72
2016-04-13T05:08:58.620Z,65.39
2016-04-13T05:09:58.639Z,64.62
2016-04-13T05:10:58.658Z,64.62
2016-04-13T05:11:58.675Z,63.96
2016-04-13T05:12:58.694Z,63.76
2016-04-13T05:13:58.712Z,64.81
2016-04-13T05:14:58.715Z,64.24
2016-04-13T05:15:58.732Z,64.91
2016-04-13T05:16:58.595Z,64.91
2016-04-13T05:17:58.769Z,65.2
2016-04-13T05:18:58.772Z,64.34
2016-04-13T05:19:58.822Z,64.81
2016-04-13T05:20:58.652Z,64.34
2016-04-13T05:21:58.844Z,64.62
2016-04-13T05:22:58.845Z,65.2
2016-04-13T05:23:58.848Z,65.39
2016-04-13T05:24:58.898Z,64.81
2016-04-13T05:25:58.885Z,63.76
2016-04-13T05:26:58.904Z,63.86
2016-04-13T05:27:58.953Z,64.43
2016-04-13T05:28:58.924Z,64.53
2016-04-13T05:29:58.959Z,63.96
2016-04-13T05:30:58.976Z,64.05
2016-04-13T05:31:58.979Z,64.81
2016-04-13T05:32:58.997Z,64.15
2016-04-13T05:33:59.017Z,64.15
2016-04-13T05:34:59.097Z,63.76
2016-04-13T05:35:59.037Z,64.24
2016-04-13T05:36:59.102Z,64.43
2016-04-13T05:37:59.073Z,64.34
2016-04-13T05:38:59.091Z,64.15
2016-04-13T05:39:59.095Z,64.53
2016-04-13T05:40:59.113Z,64.85
2016-04-13T05:41:59.131Z,64.28
2016-04-13T05:42:59.149Z,64.28
2016-04-13T05:43:59.152Z,64.09
2016-04-13T05:44:59.171Z,63.32
2016-04-13T05:45:59.188Z,62.84
2016-04-13T05:46:59.207Z,63.13
2016-04-13T05:47:59.225Z,63.99
2016-04-13T05:48:59.243Z,63.04
2016-04-13T05:49:59.246Z,63.51
2016-04-13T05:50:59.265Z,63.51
2016-04-13T05:51:59.376Z,62.94
2016-04-13T05:52:59.317Z,62.94
2016-04-13T05:53:59.321Z,63.42
2016-04-13T05:54:59.323Z,63.04
2016-04-13T05:55:59.371Z,63.51
2016-04-13T05:56:59.390Z,63.6
2016-04-13T05:57:59.377Z,62.56
2016-04-13T05:58:59.396Z,62.94
2016-04-13T05:59:59.414Z,63.32
2016-04-13T06:00:59.432Z,63.13
2016-04-13T06:01:59.451Z,63.04
2016-04-13T06:02:59.469Z,63.04
2016-04-13T06:03:59.472Z,63.04
2016-04-13T06:04:59.489Z,62.84
2016-04-13T06:05:59.509Z,62.56
2016-04-13T06:06:59.714Z,62.65
2016-04-13T06:07:59.561Z,62.46
2016-04-13T06:08:59.548Z,62.56
2016-04-13T06:09:59.566Z,62.65
2016-04-13T06:10:59.600Z,63.51
2016-04-13T06:11:59.603Z,62.37
2016-04-13T06:12:59.622Z,62.84
2016-04-13T06:13:59.624Z,63.04
2016-04-13T06:14:59.657Z,62.37
2016-04-13T06:15:58.910Z,62.84
2016-04-13T06:16:59.678Z,62.75
2016-04-13T06:17:59.759Z,62.65
2016-04-13T06:18:59.699Z,62.65
2016-04-13T06:19:59.718Z,62.56
2016-04-13T06:20:59.736Z,62.84
2016-04-13T06:21:59.801Z,63.23
2016-04-13T06:22:59.774Z,62.18
2016-04-13T06:23:59.776Z,61.7
2016-04-13T06:24:59.809Z,61.89
2016-04-13T06:25:59.812Z,62.18
2016-04-13T06:26:59.846Z,62.65
2016-04-13T06:27:59.865Z,61.6
2016-04-13T06:28:59.882Z,62.02
2016-04-13T06:29:59.885Z,62.02
2016-04-13T06:30:59.920Z,61.54
2016-04-13T06:31:59.922Z,61.35
2016-04-13T06:32:59.940Z,61.44
2016-04-13T06:33:59.958Z,60.71
2016-04-13T06:34:59.945Z,60.24
2016-04-13T06:35:59.979Z,59.76
2016-04-13T06:37:00.169Z,59.28
2016-04-13T06:38:00.001Z,58.51
2016-04-13T06:39:00.019Z,58.61
2016-04-13T06:40:00.036Z,58.9
2016-04-13T06:41:00.056Z,58.7
2016-04-13T06:42:00.074Z,58.42
2016-04-13T06:43:00.092Z,57.65
2016-04-13T06:44:00.125Z,58.16
2016-04-13T06:45:00.128Z,57.31
2016-04-13T06:46:00.147Z,57.4
2016-04-13T06:47:00.166Z,56.63
2016-04-13T06:48:00.168Z,56.09
2016-04-13T06:49:00.186Z,55.8
2016-04-13T06:50:00.204Z,54.27
2016-04-13T06:51:00.224Z,53.89
2016-04-13T06:52:00.351Z,53.82
2016-04-13T06:53:00.260Z,52.1
2016-04-13T06:54:00.277Z,52.29
2016-04-13T06:55:00.296Z,50
2016-04-13T06:56:00.315Z,49.45
2016-04-13T06:57:00.333Z,49.26
2016-04-13T06:58:00.335Z,48.8
2016-04-13T06:59:00.354Z,48.52
2016-04-13T07:00:00.591Z,47.94
2016-04-13T07:01:00.390Z,46.25
2016-04-13T07:02:00.424Z,45.57
2016-04-13T07:03:00.443Z,45.67
2016-04-13T07:04:00.445Z,45.48
2016-04-13T07:05:00.479Z,45.21
2016-04-13T07:06:00.498Z,44.26
2016-04-13T07:07:00.547Z,45.29
2016-04-13T07:08:00.534Z,45.86
2016-04-13T07:09:00.552Z,45.09
2016-04-13T07:10:00.586Z,45.38
2016-04-13T07:11:00.589Z,45.48
2016-04-13T07:12:00.654Z,45.31
2016-04-13T07:13:00.625Z,45.31
2016-04-13T07:14:00.644Z,43.87
2016-04-13T07:15:00.663Z,44.06
2016-04-13T07:16:00.681Z,44.73
2016-04-13T07:17:00.714Z,43.8
2016-04-13T07:18:00.733Z,42.46
2016-04-13T07:19:00.752Z,42.47
2016-04-13T07:20:00.754Z,41.63
2016-04-13T07:21:00.789Z,41.27
2016-04-13T07:22:01.010Z,41.08
2016-04-13T07:23:00.825Z,41.27
2016-04-13T07:24:00.844Z,41.17
2016-04-13T07:25:00.877Z,39.85
2016-04-13T07:26:00.880Z,38.99
2016-04-13T07:27:00.898Z,38.7
2016-04-13T07:28:00.948Z,36.97
2016-04-13T07:29:00.966Z,38.24
2016-04-13T07:30:00.984Z,36.7
2016-04-13T07:31:01.002Z,35.74
2016-04-13T07:32:01.020Z,35.08
2016-04-13T07:33:01.039Z,35.38
2016-04-13T07:34:01.073Z,33.54
2016-04-13T07:35:01.091Z,33.56
2016-04-13T07:36:01.126Z,32.89
2016-04-13T07:37:01.300Z,33.47
2016-04-13T07:38:01.178Z,33
2016-04-13T07:39:01.181Z,31.08
2016-04-13T07:40:01.214Z,31.37
2016-04-13T07:41:01.233Z,32.04
2016-04-13T07:42:01.267Z,32.81
2016-04-13T07:43:01.284Z,33.77
2016-04-13T07:44:01.303Z,33
2016-04-13T07:45:01.321Z,33.89
2016-04-13T07:46:01.355Z,33.4
2016-04-13T07:47:01.358Z,32.54
2016-04-13T07:48:01.391Z,32.56
2016-04-13T07:49:01.425Z,32.82
2016-04-13T07:50:01.428Z,31.01
2016-04-13T07:51:01.463Z,29.95
2016-04-13T07:52:01.638Z,31.09
2016-04-13T07:53:01.515Z,31.19
2016-04-13T07:54:01.533Z,31.29
2016-04-13T07:55:01.551Z,32.34
2016-04-13T07:56:01.601Z,33.03
2016-04-13T07:57:01.604Z,32.46
2016-04-13T07:58:01.637Z,31.11
2016-04-13T07:59:01.657Z,31.01
2016-04-13T08:00:01.690Z,31.11
2016-04-13T08:01:01.740Z,30.82
2016-04-13T08:02:01.727Z,30.91
2016-04-13T08:03:01.745Z,29.68
2016-04-13T08:04:01.810Z,31.22
2016-04-13T08:05:01.797Z,28.53
2016-04-13T08:06:01.675Z,27.76
2016-04-13T08:07:02.115Z,27.86
2016-04-13T08:08:01.867Z,28.14
2016-04-13T08:09:01.797Z,27.08
2016-04-13T08:10:01.924Z,28.22
2016-04-13T08:11:01.942Z,28.89
2016-04-13T08:12:01.961Z,28.51
2016-04-13T08:13:01.979Z,27.83
2016-04-13T08:14:01.998Z,27.45
2016-04-13T08:15:02.047Z,28.89
2016-04-13T08:16:02.066Z,27.53
2016-04-13T08:17:02.084Z,29.18
2016-04-13T08:18:02.102Z,29.18
2016-04-13T08:19:02.136Z,28.89
2016-04-13T08:20:02.171Z,29.77
2016-04-13T08:21:02.173Z,28.15
2016-04-13T08:22:02.207Z,26.43
2016-04-13T08:23:02.225Z,25.75
2016-04-13T08:24:02.244Z,25.56
2016-04-13T08:25:02.278Z,24.79
2016-04-13T08:26:02.296Z,26.23
2016-04-13T08:27:02.330Z,27.12
2016-04-13T08:28:02.348Z,27.02
2016-04-13T08:29:02.382Z,25.67
2016-04-13T08:30:02.401Z,26.15
2016-04-13T08:31:02.418Z,24.62
2016-04-13T08:32:02.453Z,24.72
2016-04-13T08:33:02.470Z,23.65
2016-04-13T08:34:02.520Z,23.47
2016-04-13T08:35:02.539Z,23.39
2016-04-13T08:36:02.556Z,23.68
2016-04-13T08:37:02.576Z,24.37
2016-04-13T08:38:02.609Z,24.85
2016-04-13T08:39:02.628Z,23.8
2016-04-13T08:40:02.677Z,23.8
2016-04-13T08:41:02.680Z,22.44
2016-04-13T08:42:02.698Z,23.41
2016-04-13T08:43:02.763Z,23.41
2016-04-13T08:44:02.750Z,23.52
2016-04-13T08:45:02.783Z,23.42
2016-04-13T08:46:02.818Z,23.52
2016-04-13T08:47:02.836Z,23.71
2016-04-13T08:48:02.871Z,24.29
2016-04-13T08:49:02.889Z,24.1
2016-04-13T08:50:02.939Z,23.92
2016-04-13T08:51:02.972Z,23.43
2016-04-13T08:52:02.975Z,21.01
2016-04-13T08:53:02.993Z,21.59
2016-04-13T08:54:03.027Z,21.4
2016-04-13T08:55:03.061Z,23.53
2016-04-13T08:56:03.080Z,20.24
2016-04-13T08:57:03.114Z,21.12
2016-04-13T08:58:03.148Z,21.7
2016-04-13T08:59:03.197Z,21.13
2016-04-13T09:00:03.199Z,20.45
2016-04-13T09:01:03.218Z,20.73
2016-04-13T09:02:03.268Z,20.34
2016-04-13T09:03:03.301Z,21.12
2016-04-13T09:04:03.304Z,19.96
2016-04-13T09:05:03.337Z,19.95
2016-04-13T09:06:03.372Z,19.96
2016-04-13T09:07:03.422Z,21.12
2016-04-13T09:08:03.425Z,21.02
2016-04-13T09:09:03.473Z,19.67
2016-04-13T09:10:03.492Z,19.86
2016-04-13T09:11:03.526Z,20.73
2016-04-13T09:12:03.544Z,21.13
2016-04-13T09:13:03.563Z,21.13
2016-04-13T09:14:03.597Z,21.13
2016-04-13T09:15:03.631Z,22.3
2016-04-13T09:16:03.664Z,21.71
2016-04-13T09:17:03.683Z,20.65
2016-04-13T09:18:03.716Z,19.96
2016-04-13T09:19:03.750Z,19.19
2016-04-13T09:20:03.769Z,19.68
2016-04-13T09:21:03.803Z,20.26
2016-04-13T09:22:03.822Z,18.89
2016-04-13T09:23:03.855Z,19.67
2016-04-13T09:24:03.889Z,18.89
2016-04-13T09:25:03.907Z,20.64
2016-04-13T09:26:03.926Z,21.01
2016-04-13T09:27:03.960Z,21.31
2016-04-13T09:28:03.979Z,22.09
2016-04-13T09:29:04.028Z,20.65
2016-04-13T09:30:04.046Z,19.68
2016-04-13T09:31:04.080Z,17.46
2016-04-13T09:32:04.098Z,18.71
2016-04-13T09:33:04.132Z,18.52
2016-04-13T09:34:04.150Z,19.88
2016-04-13T09:35:04.168Z,18.51
2016-04-13T09:36:04.218Z,19.87
2016-04-13T09:37:04.236Z,20.76
2016-04-13T09:38:04.271Z,19.02
2016-04-13T09:39:04.289Z,18.65
2016-04-13T09:40:04.323Z,16.42
2016-04-13T09:41:04.356Z,15.64
2016-04-13T09:42:04.406Z,16.82
2016-04-13T09:43:04.409Z,16.72
2016-04-13T09:44:04.442Z,16.43
2016-04-13T09:45:04.477Z,17.21
2016-04-13T09:46:04.495Z,15.56
2016-04-13T09:47:04.529Z,16.05
2016-04-13T09:48:04.563Z,15.47
2016-04-13T09:49:04.597Z,15.56
2016-04-13T09:50:04.616Z,17.21
2016-04-13T09:51:04.650Z,15.66
2016-04-13T09:52:04.668Z,16.43
2016-04-13T09:53:04.702Z,17.41
2016-04-13T09:54:04.791Z,17.9
2016-04-13T09:55:09.353Z,17.22
2016-04-13T09:56:05.610Z,15.38
2016-04-13T09:57:04.676Z,16.64
2016-04-13T09:58:04.851Z,16.16
2016-04-13T09:59:08.182Z,15.67
2016-04-13T10:00:04.911Z,17.22
2016-04-13T10:01:04.974Z,16.15
2016-04-13T10:02:04.977Z,16.25
2016-04-13T10:03:05.011Z,16.63
2016-04-13T10:04:04.896Z,16.14
2016-04-13T10:05:06.773Z,17.8
2016-04-13T10:06:04.932Z,17.12
2016-04-13T10:07:04.965Z,16.05
2016-04-13T10:08:05.187Z,15.47
2016-04-13T10:09:05.174Z,16.05
2016-04-13T10:10:05.208Z,17.13
2016-04-13T10:11:05.242Z,15.87
2016-04-13T10:12:05.276Z,15.48
2016-04-13T10:13:06.231Z,15.47
2016-04-13T10:14:13.750Z,15.86
2016-04-13T10:15:14.472Z,16.15
2016-04-13T10:16:12.333Z,14.51
2016-04-13T10:17:05.431Z,13.62
2016-04-13T10:18:05.449Z,14.5
2016-04-13T10:19:05.483Z,16.25
2016-04-13T10:20:05.548Z,15.87
2016-04-13T10:21:05.550Z,17.13
2016-04-13T10:22:05.569Z,14.51
2016-04-13T10:23:05.619Z,14.51
2016-04-13T10:24:05.636Z,15.87
2016-04-13T10:25:05.671Z,15.67
2016-04-13T10:26:05.689Z,15.09
2016-04-13T10:27:05.738Z,14.51
2016-04-13T10:28:05.757Z,13.82
2016-04-13T10:29:05.791Z,14.49
2016-04-13T10:30:05.825Z,17.8
2016-04-13T10:31:05.850Z,17.41
2016-04-13T10:32:05.884Z,18.38
2016-04-13T10:33:05.996Z,17.42
2016-04-13T10:34:09.248Z,16.83
2016-04-13T10:35:05.970Z,16.93
2016-04-13T10:36:06.004Z,15.37
2016-04-13T10:37:06.053Z,14.3
2016-04-13T10:38:06.054Z,15.67
2016-04-13T10:39:06.089Z,15.67
2016-04-13T10:40:06.138Z,14.51
2016-04-13T10:41:06.156Z,13.72
2016-04-13T10:42:06.190Z,15.77
2016-04-13T10:43:06.225Z,15.47
2016-04-13T10:44:06.274Z,15.66
2016-04-13T10:45:06.292Z,14.78
2016-04-13T10:46:06.325Z,14.01
2016-04-13T10:47:06.328Z,18.58
2016-04-13T10:48:06.363Z,14.11
2016-04-13T10:49:06.397Z,15.27
2016-04-13T10:50:06.446Z,15.85
2016-04-13T10:51:06.480Z,14.29
2016-04-13T10:52:06.513Z,15.66
2016-04-13T10:53:06.532Z,15.94
2016-04-13T10:54:06.550Z,16.24
2016-04-13T10:55:08.366Z,16.14
2016-04-13T10:56:14.885Z,16.53
2016-04-13T10:57:22.918Z,16.83
2016-04-13T10:58:12.827Z,17.5
2016-04-13T10:59:11.611Z,16.15
2016-04-13T11:00:14.754Z,15.77
2016-04-13T11:01:20.954Z,15.57
2016-04-13T11:02:18.096Z,15.57
2016-04-13T11:03:17.908Z,15.28
2016-04-13T11:04:33.141Z,16.05
2016-04-13T11:05:21.938Z,16.54
2016-04-13T11:06:21.650Z,15.08
2016-04-13T11:07:26.043Z,15.47
2016-04-13T11:09:30.377Z,16.63
2016-04-13T11:10:58.396Z,15.28
2016-04-13T11:11:55.734Z,16.16
2016-04-13T11:12:47.070Z,16.06
2016-04-13T11:13:49.110Z,13.92
2016-04-13T11:14:50.367Z,15.77
2016-04-13T11:16:04.079Z,15.48
2016-04-13T11:17:02.240Z,14.99
2016-04-13T11:18:17.671Z,15.48
2016-04-13T11:19:29.629Z,15.48
2016-04-13T11:20:30.931Z,17.82
2016-04-13T11:21:57.996Z,16.75
2016-04-13T11:22:37.906Z,15.68
2016-04-13T11:23:37.550Z,15.68
2016-04-13T11:24:37.585Z,13.93
2016-04-13T11:25:37.604Z,15.48
2016-04-13T11:26:37.638Z,14.71
2016-04-13T11:27:37.657Z,15.19
2016-04-13T11:28:37.676Z,14.41
2016-04-13T11:29:37.711Z,13.63
2016-04-13T11:30:37.745Z,13.82
2016-04-13T11:31:37.763Z,15.67
2016-04-13T11:32:37.796Z,15.68
2016-04-13T11:33:37.816Z,15.69
2016-04-13T11:34:38.021Z,16.86
2016-04-13T11:35:37.883Z,16.56
2016-04-13T11:36:37.917Z,16.77
2016-04-13T11:37:37.951Z,16.09
2016-04-13T11:38:37.969Z,14.43
2016-04-13T11:39:38.018Z,14.63
2016-04-13T11:40:38.037Z,13.94
2016-04-13T11:41:38.071Z,13.94
2016-04-13T11:42:38.104Z,14.23
2016-04-13T11:43:38.123Z,14.91
2016-04-13T11:44:38.157Z,14.62
2016-04-13T11:45:38.190Z,13.26
2016-04-13T11:46:38.241Z,14.13
2016-04-13T11:47:38.259Z,14.23
2016-04-13T11:48:38.293Z,13.64
2016-04-13T11:49:38.327Z,15.2
2016-04-13T11:50:38.345Z,13.45
2016-04-13T11:51:38.363Z,12.08
2016-04-13T11:52:38.397Z,12.95
2016-04-13T11:53:38.431Z,13.64
2016-04-13T11:54:38.465Z,13.93
2016-04-13T11:55:38.500Z,14.42
2016-04-13T11:56:38.517Z,13.54
2016-04-13T11:57:38.551Z,14.42
2016-04-13T11:58:38.585Z,14.9
2016-04-13T11:59:38.603Z,13.64
2016-04-13T12:00:38.638Z,13.54
2016-04-13T12:01:38.672Z,12.56
2016-04-13T12:02:38.705Z,13.92
2016-04-13T12:03:38.724Z,13.13
2016-04-13T12:04:38.805Z,13.82
2016-04-13T12:05:38.808Z,14.51
2016-04-13T12:06:38.810Z,13.92
2016-04-13T12:07:38.844Z,15.38
2016-04-13T12:08:38.878Z,15.09
2016-04-13T12:09:38.913Z,15.19
2016-04-13T12:10:38.947Z,14.9
2016-04-13T12:11:38.981Z,15.29
2016-04-13T12:12:39.014Z,16.27
2016-04-13T12:13:39.033Z,15.69
2016-04-13T12:14:39.067Z,15.3
2016-04-13T12:15:39.101Z,15.01
2016-04-13T12:16:39.260Z,15.78
2016-04-13T12:18:39.187Z,15.6
2016-04-13T12:19:39.205Z,15.89
2016-04-13T12:20:39.255Z,15.21
2016-04-13T12:21:39.288Z,16.67
2016-04-13T12:22:39.323Z,15.7
2016-04-13T12:23:39.341Z,13.46
2016-04-13T12:24:39.374Z,14.04
2016-04-13T12:25:39.409Z,13.17
2016-04-13T12:26:39.443Z,14.53
2016-04-13T12:27:39.477Z,13.85
2016-04-13T12:28:39.495Z,14.14
2016-04-13T12:29:39.529Z,13.65
2016-04-13T12:30:39.548Z,15.01
2016-04-13T12:31:39.581Z,15.2
2016-04-13T12:32:39.601Z,15.01
2016-04-13T12:33:39.634Z,16.17
2016-04-13T12:34:39.668Z,15.6
2016-04-13T12:35:39.686Z,15.7
2016-04-13T12:36:39.735Z,15.21
2016-04-13T12:37:39.770Z,14.92
2016-04-13T12:38:39.787Z,14.91
2016-04-13T12:39:39.822Z,14.52
2016-04-13T12:40:39.856Z,15.3
2016-04-13T12:41:39.890Z,15.11
2016-04-13T12:42:39.923Z,14.32
2016-04-13T12:43:39.942Z,16.56
2016-04-13T12:44:39.960Z,16.56
2016-04-13T12:45:39.994Z,16.17
2016-04-13T12:46:40.028Z,13.74
2016-04-13T12:47:40.061Z,15.3
2016-04-13T12:48:40.096Z,15.01
2016-04-13T12:49:40.114Z,14.72
2016-04-13T12:50:40.164Z,15.8
2016-04-13T12:51:40.198Z,15.5
2016-04-13T12:52:40.216Z,15.22
2016-04-13T12:53:40.265Z,14.53
2016-04-13T12:54:40.268Z,14.53
2016-04-13T12:55:40.302Z,14.83
2016-04-13T12:56:40.336Z,13.46
2016-04-13T12:57:40.371Z,14.04
2016-04-13T12:58:40.388Z,14.72
2016-04-13T12:59:40.423Z,15.41